createdAt,value
2022-10-13T00:00:07.980Z,10.54
2022-10-13T00:02:34.134Z,10.47
2022-10-13T00:05:00.257Z,10.48
2022-10-13T00:07:26.385Z,10.46
2022-10-13T00:09:52.514Z,10.47
2022-10-13T00:12:18.989Z,10.42
2022-10-13T00:14:45.376Z,10.42
2022-10-13T00:17:11.501Z,10.37
2022-10-13T00:19:37.652Z,10.36
2022-10-13T00:22:03.799Z,10.38
2022-10-13T00:24:29.934Z,10.39
2022-10-13T00:26:56.095Z,10.40
2022-10-13T00:29:22.210Z,10.38
2022-10-13T00:31:48.482Z,10.37
2022-10-13T00:34:14.613Z,10.36
2022-10-13T00:36:40.869Z,10.34
2022-10-13T00:39:06.983Z,10.31
2022-10-13T00:41:33.127Z,10.31
2022-10-13T00:43:59.228Z,10.30
2022-10-13T00:46:25.361Z,10.28
2022-10-13T00:48:51.528Z,10.27
2022-10-13T00:51:17.722Z,10.24
2022-10-13T00:53:43.886Z,10.22
2022-10-13T00:56:10.006Z,10.19
2022-10-13T00:58:36.162Z,10.18
2022-10-13T01:01:02.332Z,10.16
2022-10-13T01:03:28.492Z,10.14
2022-10-13T01:05:54.640Z,10.13
2022-10-13T01:08:20.757Z,10.11
2022-10-13T01:10:46.886Z,10.09
2022-10-13T01:13:13.034Z,10.12
2022-10-13T01:15:39.173Z,9.97
2022-10-13T01:18:05.327Z,9.96
2022-10-13T01:20:31.459Z,9.93
2022-10-13T01:22:57.577Z,9.89
2022-10-13T01:25:23.712Z,9.85
2022-10-13T01:27:49.841Z,9.78
2022-10-13T01:30:16.927Z,9.81
2022-10-13T01:32:43.070Z,9.79
2022-10-13T01:35:09.174Z,9.59
2022-10-13T01:37:35.308Z,9.78
2022-10-13T01:40:01.443Z,9.83
2022-10-13T01:42:27.675Z,9.84
2022-10-13T01:44:53.797Z,9.92
2022-10-13T01:47:19.930Z,9.96
2022-10-13T01:49:46.071Z,10.03
2022-10-13T01:52:12.180Z,10.04
2022-10-13T01:54:38.306Z,10.12
2022-10-13T01:57:04.601Z,10.16
2022-10-13T01:59:30.732Z,10.17
2022-10-13T02:01:56.848Z,10.26
2022-10-13T02:04:23.094Z,10.30
2022-10-13T02:06:49.230Z,10.33
2022-10-13T02:09:15.350Z,10.39
2022-10-13T02:11:41.527Z,10.45
2022-10-13T02:14:07.657Z,10.51
2022-10-13T02:16:33.785Z,10.56
2022-10-13T02:18:59.928Z,10.60
2022-10-13T02:21:26.054Z,10.60
2022-10-13T02:23:52.238Z,10.62
2022-10-13T02:26:18.358Z,10.67
2022-10-13T02:28:44.532Z,10.70
2022-10-13T02:31:10.717Z,10.76
2022-10-13T02:33:36.852Z,10.78
2022-10-13T02:36:03.007Z,10.81
2022-10-13T02:38:29.164Z,10.82
2022-10-13T02:40:55.279Z,10.86
2022-10-13T02:43:21.478Z,10.90
2022-10-13T02:45:47.591Z,10.92
2022-10-13T02:48:13.757Z,10.93
2022-10-13T02:50:39.879Z,10.98
2022-10-13T02:53:05.994Z,10.99
2022-10-13T02:55:32.113Z,11.01
2022-10-13T02:57:58.356Z,11.06
2022-10-13T03:00:24.475Z,11.07
2022-10-13T03:02:50.634Z,11.08
2022-10-13T03:05:16.785Z,11.08
2022-10-13T03:07:42.916Z,11.09
2022-10-13T03:10:09.144Z,11.09
2022-10-13T03:12:35.304Z,11.14
2022-10-13T03:15:01.417Z,11.18
2022-10-13T03:17:27.532Z,11.19
2022-10-13T03:19:53.664Z,11.16
2022-10-13T03:22:20.078Z,11.16
2022-10-13T03:24:46.429Z,11.15
2022-10-13T03:27:12.554Z,11.11
2022-10-13T03:29:38.691Z,11.11
2022-10-13T03:32:04.838Z,11.12
2022-10-13T03:34:31.103Z,11.11
2022-10-13T03:36:57.251Z,11.06
2022-10-13T03:39:23.365Z,11.03
2022-10-13T03:41:49.494Z,11.03
2022-10-13T03:44:15.648Z,11.02
2022-10-13T03:46:41.769Z,10.99
2022-10-13T03:49:07.893Z,10.97
2022-10-13T03:51:34.168Z,10.96
2022-10-13T03:54:00.302Z,10.95
2022-10-13T03:56:26.562Z,10.94
2022-10-13T03:58:52.697Z,10.93
2022-10-13T04:01:18.882Z,10.95
2022-10-13T04:03:45.039Z,10.92
2022-10-13T04:06:11.183Z,10.92
2022-10-13T04:08:37.311Z,10.91
2022-10-13T04:11:03.432Z,10.92
2022-10-13T04:13:29.621Z,10.94
2022-10-13T04:15:55.863Z,10.95
2022-10-13T04:18:21.999Z,10.92
2022-10-13T04:20:48.204Z,10.93
2022-10-13T04:23:14.403Z,10.98
2022-10-13T04:25:40.549Z,10.96
2022-10-13T04:28:06.660Z,10.99
2022-10-13T04:30:32.778Z,11.01
2022-10-13T04:32:58.911Z,10.98
2022-10-13T04:35:25.027Z,10.97
2022-10-13T04:37:51.170Z,11.01
2022-10-13T04:40:17.306Z,11.02
2022-10-13T04:42:43.501Z,11.02
2022-10-13T04:45:09.625Z,11.04
2022-10-13T04:47:37.127Z,11.05
2022-10-13T04:50:03.409Z,11.09
2022-10-13T04:52:29.536Z,11.07
2022-10-13T04:54:55.688Z,11.04
2022-10-13T04:57:21.853Z,11.04
2022-10-13T04:59:47.959Z,11.06
2022-10-13T05:02:14.135Z,11.08
2022-10-13T05:04:40.481Z,11.09
2022-10-13T05:07:17.454Z,11.09
2022-10-13T05:09:44.325Z,11.09
2022-10-13T05:12:10.466Z,11.05
2022-10-13T05:14:36.652Z,11.04
2022-10-13T05:17:02.773Z,11.03
2022-10-13T05:19:28.918Z,11.03
2022-10-13T05:21:55.058Z,11.01
2022-10-13T05:24:21.218Z,11.03
2022-10-13T05:26:47.365Z,11.00
2022-10-13T05:29:13.511Z,11.03
2022-10-13T05:31:39.651Z,11.00
2022-10-13T05:34:05.908Z,10.95
2022-10-13T05:36:32.036Z,10.95
2022-10-13T05:38:58.142Z,10.93
2022-10-13T05:41:24.277Z,10.90
2022-10-13T05:43:50.422Z,10.91
2022-10-13T05:46:16.548Z,10.88
2022-10-13T05:48:42.794Z,10.83
2022-10-13T05:51:08.972Z,10.79
2022-10-13T05:53:35.090Z,10.80
2022-10-13T05:56:01.215Z,10.77
2022-10-13T05:58:27.333Z,10.77
2022-10-13T06:00:53.460Z,10.76
2022-10-13T06:03:19.612Z,10.76
2022-10-13T06:05:45.746Z,10.76
2022-10-13T06:08:11.875Z,10.77
2022-10-13T06:10:38.022Z,10.80
2022-10-13T06:13:04.146Z,10.82
2022-10-13T06:15:30.279Z,10.82
2022-10-13T06:17:59.258Z,10.82
2022-10-13T06:20:25.473Z,10.80
2022-10-13T06:22:51.617Z,10.81
2022-10-13T06:25:17.756Z,10.83
2022-10-13T06:27:43.906Z,10.86
2022-10-13T06:30:10.061Z,10.92
2022-10-13T06:32:36.222Z,10.93
2022-10-13T06:35:02.339Z,10.93
2022-10-13T06:37:29.935Z,11.00
2022-10-13T06:39:57.065Z,10.91
2022-10-13T06:42:34.718Z,11.08
2022-10-13T06:45:13.851Z,11.15
2022-10-13T06:50:30.365Z,11.24
2022-10-13T06:53:08.964Z,11.26
2022-10-13T06:58:17.870Z,11.40
2022-10-13T07:00:48.687Z,11.46
2022-10-13T07:03:15.473Z,11.63
2022-10-13T07:05:42.894Z,11.59
2022-10-13T07:08:09.062Z,11.65
2022-10-13T07:13:15.430Z,11.79
2022-10-13T07:15:41.977Z,11.80
2022-10-13T07:18:08.142Z,11.84
2022-10-13T07:20:34.309Z,11.86
2022-10-13T07:23:00.483Z,11.90
2022-10-13T07:25:26.641Z,11.98
2022-10-13T07:27:52.755Z,12.06
2022-10-13T07:30:19.141Z,12.16
2022-10-13T07:32:45.271Z,12.22
2022-10-13T07:35:13.809Z,12.24
2022-10-13T07:37:39.950Z,12.30
2022-10-13T07:40:06.244Z,12.40
2022-10-13T07:42:32.391Z,12.42
2022-10-13T07:44:58.497Z,12.42
2022-10-13T07:47:24.678Z,12.46
2022-10-13T07:49:50.813Z,12.52
2022-10-13T07:52:17.123Z,12.55
2022-10-13T07:54:43.499Z,12.55
2022-10-13T07:57:09.752Z,12.56
2022-10-13T07:59:35.904Z,12.56
2022-10-13T08:02:02.022Z,12.58
2022-10-13T08:04:28.162Z,12.65
2022-10-13T08:06:54.274Z,12.74
2022-10-13T08:09:20.612Z,12.81
2022-10-13T08:11:46.752Z,12.96
2022-10-13T08:14:12.899Z,13.00
2022-10-13T08:16:39.019Z,13.08
2022-10-13T08:19:05.149Z,13.17
2022-10-13T08:24:17.413Z,13.19
2022-10-13T08:26:43.551Z,13.21
2022-10-13T08:29:25.012Z,13.18
2022-10-13T08:31:51.370Z,13.17
2022-10-13T08:34:17.615Z,13.13
2022-10-13T08:36:43.760Z,13.13
2022-10-13T08:39:09.879Z,13.10
2022-10-13T08:41:36.023Z,13.03
2022-10-13T08:44:49.532Z,13.07
2022-10-13T08:46:48.341Z,13.06
2022-10-13T08:49:14.468Z,13.15
2022-10-13T08:51:40.617Z,13.15
2022-10-13T08:54:07.034Z,13.05
2022-10-13T08:56:33.201Z,13.07
2022-10-13T08:58:59.396Z,13.05
2022-10-13T09:01:25.624Z,13.06
2022-10-13T09:03:51.810Z,13.09
2022-10-13T09:06:17.953Z,13.03
2022-10-13T09:08:44.135Z,13.01
2022-10-13T09:11:10.297Z,13.04
2022-10-13T09:13:36.435Z,13.02
2022-10-13T09:16:02.585Z,13.02
2022-10-13T09:18:28.703Z,13.09
2022-10-13T09:20:54.859Z,13.12
2022-10-13T09:23:20.968Z,13.11
2022-10-13T09:25:47.136Z,13.12
2022-10-13T09:28:13.315Z,13.13
2022-10-13T09:30:39.440Z,13.16
2022-10-13T09:33:05.621Z,13.18
2022-10-13T09:35:31.754Z,13.20
2022-10-13T09:37:57.922Z,13.23
2022-10-13T09:40:24.056Z,13.24
2022-10-13T09:42:50.215Z,13.23
2022-10-13T09:45:16.361Z,13.23
2022-10-13T09:47:42.582Z,13.26
2022-10-13T09:50:08.734Z,13.27
2022-10-13T09:52:34.871Z,13.31
2022-10-13T09:55:00.986Z,13.29
2022-10-13T09:57:27.381Z,13.28
2022-10-13T09:59:53.577Z,13.25
2022-10-13T10:02:21.356Z,13.27
2022-10-13T10:04:49.912Z,13.28
2022-10-13T10:07:16.043Z,13.25
2022-10-13T10:09:42.198Z,13.27
2022-10-13T10:12:11.359Z,13.27
2022-10-13T10:14:37.500Z,13.31
2022-10-13T10:17:03.630Z,13.31
2022-10-13T10:19:29.882Z,13.37
2022-10-13T10:21:56.019Z,13.43
2022-10-13T10:24:22.176Z,13.47
2022-10-13T10:26:48.293Z,13.50
2022-10-13T10:29:14.464Z,13.52
2022-10-13T10:31:40.590Z,13.56
2022-10-13T10:34:06.761Z,13.60
2022-10-13T10:36:32.893Z,13.66
2022-10-13T10:38:59.014Z,13.66
2022-10-13T10:41:25.156Z,13.69
2022-10-13T10:43:51.289Z,13.66
2022-10-13T10:46:17.443Z,13.63
2022-10-13T10:48:43.571Z,13.62
2022-10-13T10:51:09.725Z,13.62
2022-10-13T10:53:35.851Z,13.63
2022-10-13T10:56:02.008Z,13.62
2022-10-13T10:58:28.122Z,13.64
2022-10-13T11:06:37.280Z,13.71
2022-10-13T11:09:03.399Z,13.82
2022-10-13T11:11:32.303Z,13.81
2022-10-13T11:14:02.696Z,13.94
2022-10-13T11:16:28.843Z,14.09
2022-10-13T11:18:54.981Z,14.25
2022-10-13T11:21:21.194Z,14.37
2022-10-13T11:23:47.326Z,14.51
2022-10-13T11:26:13.445Z,14.63
2022-10-13T11:28:39.622Z,14.76
2022-10-13T11:31:05.796Z,14.78
2022-10-13T11:33:31.951Z,14.85
2022-10-13T11:35:58.077Z,14.99
2022-10-13T11:38:24.194Z,15.15
2022-10-13T11:40:50.329Z,15.34
2022-10-13T11:43:16.461Z,15.43
2022-10-13T11:45:42.592Z,15.55
2022-10-13T11:50:35.803Z,15.96
2022-10-13T11:53:02.066Z,16.33
2022-10-13T11:55:28.206Z,16.58
2022-10-13T11:57:54.341Z,16.62
2022-10-13T12:00:20.547Z,16.48
2022-10-13T12:02:46.707Z,16.33
2022-10-13T12:05:12.922Z,16.28
2022-10-13T12:07:39.082Z,16.17
2022-10-13T12:10:05.279Z,16.27
2022-10-13T12:12:31.434Z,16.37
2022-10-13T12:14:59.976Z,16.37
2022-10-13T12:17:29.245Z,16.37
2022-10-13T12:19:55.815Z,16.39
2022-10-13T12:22:21.933Z,16.41
2022-10-13T12:24:48.064Z,16.39
2022-10-13T12:27:14.251Z,16.44
2022-10-13T12:29:40.415Z,16.50
2022-10-13T12:32:06.555Z,16.57
2022-10-13T12:34:32.757Z,16.54
2022-10-13T12:36:58.886Z,16.50
2022-10-13T12:39:25.046Z,16.41
2022-10-13T12:41:51.171Z,16.32
2022-10-13T12:44:17.295Z,16.32
2022-10-13T12:46:43.433Z,16.25
2022-10-13T12:49:09.596Z,16.29
2022-10-13T12:51:35.750Z,16.27
2022-10-13T12:54:01.897Z,16.29
2022-10-13T12:56:28.062Z,16.37
2022-10-13T12:58:54.209Z,16.43
2022-10-13T13:01:20.746Z,16.45
2022-10-13T13:03:46.995Z,16.50
2022-10-13T13:06:13.148Z,16.67
2022-10-13T13:08:39.509Z,16.71
2022-10-13T13:11:05.630Z,16.67
2022-10-13T13:13:31.779Z,16.63
2022-10-13T13:15:57.890Z,16.67
2022-10-13T13:18:24.063Z,16.71
2022-10-13T13:20:50.395Z,16.76
2022-10-13T13:23:16.552Z,16.80
2022-10-13T13:25:42.657Z,16.77
2022-10-13T13:28:08.792Z,16.63
2022-10-13T13:30:34.930Z,16.63
2022-10-13T13:33:01.147Z,16.69
2022-10-13T13:35:27.356Z,16.70
2022-10-13T13:37:53.514Z,16.63
2022-10-13T13:40:19.664Z,16.63
2022-10-13T13:42:45.895Z,16.64
2022-10-13T13:45:12.117Z,16.65
2022-10-13T13:47:38.293Z,16.65
2022-10-13T13:50:04.424Z,16.58
2022-10-13T13:52:30.544Z,16.63
2022-10-13T13:54:56.690Z,16.69
2022-10-13T13:57:23.203Z,16.76
2022-10-13T13:59:49.414Z,16.87
2022-10-13T14:02:15.720Z,16.99
2022-10-13T14:04:41.868Z,17.28
2022-10-13T14:07:08.009Z,17.40
2022-10-13T14:09:34.132Z,17.48
2022-10-13T14:12:00.251Z,17.51
2022-10-13T14:14:26.403Z,17.44
2022-10-13T14:16:52.551Z,17.34
2022-10-13T14:19:18.703Z,17.33
2022-10-13T14:21:44.818Z,17.19
2022-10-13T14:24:10.975Z,17.22
2022-10-13T14:26:37.108Z,17.22
2022-10-13T14:29:03.230Z,17.11
2022-10-13T14:31:29.381Z,17.16
2022-10-13T14:33:55.488Z,17.05
2022-10-13T14:36:22.423Z,16.95
2022-10-13T14:38:50.685Z,16.82
2022-10-13T14:41:16.811Z,16.77
2022-10-13T14:43:42.973Z,16.77
2022-10-13T14:46:09.125Z,16.75
2022-10-13T14:48:35.269Z,16.74
2022-10-13T14:51:01.405Z,16.69
2022-10-13T14:53:27.510Z,16.57
2022-10-13T14:55:53.656Z,16.53
2022-10-13T14:58:20.958Z,16.53
2022-10-13T15:00:47.179Z,16.46
2022-10-13T15:03:13.392Z,16.37
2022-10-13T15:05:39.539Z,16.33
2022-10-13T15:08:05.698Z,16.30
2022-10-13T15:10:31.851Z,16.35
2022-10-13T15:12:58.028Z,16.30
2022-10-13T15:15:24.147Z,16.33
2022-10-13T15:17:50.318Z,16.25
2022-10-13T15:20:16.438Z,16.24
2022-10-13T15:22:42.752Z,16.20
2022-10-13T15:25:08.875Z,16.09
2022-10-13T15:27:38.094Z,16.07
2022-10-13T15:30:07.720Z,16.04
2022-10-13T15:32:33.830Z,16.03
2022-10-13T15:34:59.964Z,15.99
2022-10-13T15:37:26.131Z,16.00
2022-10-13T15:39:57.197Z,15.95
2022-10-13T15:42:23.887Z,15.92
2022-10-13T15:45:08.781Z,15.91
2022-10-13T15:47:35.913Z,15.89
2022-10-13T15:50:02.077Z,15.86
2022-10-13T15:52:33.838Z,15.87
2022-10-13T15:55:01.180Z,15.90
2022-10-13T15:57:27.307Z,15.89
2022-10-13T15:59:53.473Z,15.84
2022-10-13T16:02:19.916Z,15.78
2022-10-13T16:04:46.238Z,15.73
2022-10-13T16:07:12.388Z,15.69
2022-10-13T16:09:38.512Z,15.67
2022-10-13T16:12:04.649Z,15.65
2022-10-13T16:14:30.827Z,15.64
2022-10-13T16:16:59.988Z,15.61
2022-10-13T16:19:26.152Z,15.59
2022-10-13T16:21:52.294Z,15.51
2022-10-13T16:24:18.492Z,15.48
2022-10-13T16:26:44.634Z,15.44
2022-10-13T16:29:10.741Z,15.37
2022-10-13T16:31:36.865Z,15.32
2022-10-13T16:34:03.038Z,15.30
2022-10-13T16:36:29.177Z,15.24
2022-10-13T16:38:55.320Z,15.22
2022-10-13T16:41:21.463Z,15.16
2022-10-13T16:43:47.613Z,15.13
2022-10-13T16:46:13.749Z,15.10
2022-10-13T16:48:39.904Z,14.90
2022-10-13T16:51:06.065Z,15.05
2022-10-13T16:53:32.202Z,14.98
2022-10-13T16:55:58.392Z,14.97
2022-10-13T16:58:24.534Z,14.94
2022-10-13T17:00:50.754Z,14.92
2022-10-13T17:03:16.970Z,14.92
2022-10-13T17:05:43.082Z,14.86
2022-10-13T17:08:09.274Z,14.86
2022-10-13T17:10:35.409Z,14.85
2022-10-13T17:13:01.570Z,14.82
2022-10-13T17:15:27.712Z,14.80
2022-10-13T17:17:53.848Z,14.77
2022-10-13T17:20:19.962Z,14.76
2022-10-13T17:22:46.129Z,14.74
2022-10-13T17:25:12.248Z,14.74
2022-10-13T17:27:38.419Z,14.74
2022-10-13T17:30:04.585Z,14.72
2022-10-13T17:32:30.719Z,14.70
2022-10-13T17:34:56.842Z,14.67
2022-10-13T17:37:23.355Z,14.66
2022-10-13T17:39:49.747Z,14.64
2022-10-13T17:42:15.866Z,14.62
2022-10-13T17:44:42.030Z,14.59
2022-10-13T17:47:08.579Z,14.55
2022-10-13T17:49:34.713Z,14.53
2022-10-13T17:52:00.879Z,14.51
2022-10-13T17:54:27.044Z,14.50
2022-10-13T17:56:53.184Z,14.48
2022-10-13T17:59:19.316Z,14.47
2022-10-13T18:01:45.525Z,14.46
2022-10-13T18:04:11.705Z,14.44
2022-10-13T18:06:38.918Z,14.43
2022-10-13T18:09:05.139Z,14.40
2022-10-13T18:11:31.277Z,14.34
2022-10-13T18:13:57.393Z,14.32
2022-10-13T18:16:25.891Z,14.30
2022-10-13T18:18:52.031Z,14.27
2022-10-13T18:21:18.183Z,14.23
2022-10-13T18:23:44.338Z,14.25
2022-10-13T18:26:10.520Z,14.21
2022-10-13T18:28:36.725Z,14.20
2022-10-13T18:31:02.973Z,14.18
2022-10-13T18:33:35.728Z,14.17
2022-10-13T18:36:02.006Z,14.14
2022-10-13T18:38:28.158Z,14.14
2022-10-13T18:40:54.357Z,14.14
2022-10-13T18:43:20.523Z,14.12
2022-10-13T18:45:47.074Z,14.12
2022-10-13T18:48:13.237Z,14.10
2022-10-13T18:50:39.369Z,14.08
2022-10-13T18:55:56.612Z,14.07
2022-10-13T18:58:23.953Z,14.07
2022-10-13T19:14:27.126Z,14.00
2022-10-13T20:27:16.651Z,13.96
2022-10-13T20:29:44.136Z,13.94
2022-10-13T20:32:17.138Z,13.94
2022-10-13T20:34:43.445Z,13.94
2022-10-13T20:37:11.558Z,13.94
2022-10-13T20:39:42.622Z,13.94
2022-10-13T20:42:08.881Z,13.94
2022-10-13T20:44:35.128Z,13.93
2022-10-13T20:47:01.356Z,13.93
2022-10-13T20:49:29.728Z,13.93
2022-10-13T20:51:55.976Z,13.93
2022-10-13T20:54:22.358Z,13.93
2022-10-13T20:56:48.589Z,13.91
2022-10-13T20:59:14.952Z,13.94
2022-10-13T21:01:41.179Z,13.91
2022-10-13T21:04:07.513Z,13.89
2022-10-13T21:06:33.902Z,13.89
2022-10-13T21:09:00.131Z,13.88
2022-10-13T21:11:26.626Z,13.90
2022-10-13T21:13:52.992Z,13.89
2022-10-13T21:16:20.217Z,13.88
2022-10-13T21:18:47.962Z,13.85
2022-10-13T21:21:14.181Z,13.85
2022-10-13T21:23:40.364Z,13.83
2022-10-13T21:26:06.581Z,13.83
2022-10-13T21:28:32.892Z,13.81
2022-10-13T21:30:59.252Z,13.79
2022-10-13T21:33:25.598Z,13.78
2022-10-13T21:35:52.136Z,13.79
2022-10-13T21:38:18.318Z,13.77
2022-10-13T21:40:44.636Z,13.77
2022-10-13T21:43:10.805Z,13.77
2022-10-13T21:45:36.955Z,13.75
2022-10-13T21:48:03.145Z,13.71
2022-10-13T21:50:29.379Z,13.70
2022-10-13T21:52:55.566Z,13.69
2022-10-13T21:55:21.932Z,13.67
2022-10-13T21:57:48.166Z,13.69
2022-10-13T22:00:14.579Z,13.66
2022-10-13T22:02:40.758Z,13.65
2022-10-13T22:05:07.047Z,13.65
2022-10-13T22:07:33.652Z,13.62
2022-10-13T22:09:59.913Z,13.63
2022-10-13T22:12:26.129Z,13.64
2022-10-13T22:14:52.256Z,13.64
2022-10-13T22:17:18.659Z,13.63
2022-10-13T22:19:45.128Z,13.63
2022-10-13T22:22:11.329Z,13.62
2022-10-13T22:24:37.665Z,13.60
2022-10-13T22:27:03.924Z,13.60
2022-10-13T22:29:30.135Z,13.61
2022-10-13T22:31:56.340Z,13.60
2022-10-13T22:34:22.742Z,13.61
2022-10-13T22:36:48.893Z,13.60
2022-10-13T22:39:15.075Z,13.56
2022-10-13T22:41:41.368Z,13.54
2022-10-13T22:44:07.526Z,13.53
2022-10-13T22:46:33.908Z,13.51
2022-10-13T22:49:00.139Z,13.51
2022-10-13T22:51:26.495Z,13.51
2022-10-13T22:53:52.652Z,13.52
2022-10-13T22:56:18.879Z,13.49
2022-10-13T22:58:45.092Z,13.50
2022-10-13T23:01:11.359Z,13.48
2022-10-13T23:03:37.668Z,13.46
2022-10-13T23:06:04.030Z,13.47
2022-10-13T23:08:30.246Z,13.48
2022-10-13T23:10:58.206Z,13.50
2022-10-13T23:13:24.374Z,13.49
2022-10-13T23:15:50.597Z,13.48
2022-10-13T23:18:16.968Z,13.49
2022-10-13T23:20:43.219Z,13.48
2022-10-13T23:23:09.428Z,13.46
2022-10-13T23:25:35.618Z,13.46
2022-10-13T23:28:01.796Z,13.47
2022-10-13T23:30:28.055Z,13.47
2022-10-13T23:32:54.254Z,13.47
2022-10-13T23:35:20.389Z,13.46
2022-10-13T23:37:46.610Z,13.41
2022-10-13T23:40:12.774Z,13.42
2022-10-13T23:42:38.967Z,13.39
2022-10-13T23:45:05.329Z,13.38
2022-10-13T23:47:31.748Z,13.38
2022-10-13T23:49:57.923Z,13.38
2022-10-13T23:52:24.141Z,13.37
2022-10-13T23:54:50.420Z,13.35
2022-10-13T23:57:16.550Z,13.33
2022-10-13T23:59:42.950Z,13.32
